Terminal Aerodrome Forecast
Issued by NWS Lake Charles, LA

Home | Current Version | Previous Version | Text Only | Print | Product List | Glossary On
Versions: 1 2 3 4 5 6 7 8 9 10 11 12 13 14
000
FTUS44 KLCH 221138
TAFARA
TAF
KARA 221138Z 2212/2312 VRB04KT P6SM FEW027
     FM221600 13006KT P6SM VCTS FEW028 SCT040CB
      TEMPO 2216/2220 3SM -SHRA BKN250
     FM222000 36003KT P6SM VCSH SCT040 BKN250
      TEMPO 2220/2224 P6SM -TSRA FEW030 BKN045CB
     FM230000 10004KT P6SM OVC060=

USA.gov is the U.S. government's official web portal to all federal, state and local government web resources and services.